sensor_id;sensor_type;location;lat;lon;timestamp;temperature;humidity
48007;DHT22;33771;48.180;11.400;2023-08-30T00:00:04;12.30;99.90
48007;DHT22;33771;48.180;11.400;2023-08-30T00:02:30;12.30;99.90
48007;DHT22;33771;48.180;11.400;2023-08-30T00:04:59;12.20;99.90
48007;DHT22;33771;48.180;11.400;2023-08-30T00:07:25;12.20;99.90
48007;DHT22;33771;48.180;11.400;2023-08-30T00:09:50;12.30;99.90
48007;DHT22;33771;48.180;11.400;2023-08-30T00:12:16;12.20;99.90
48007;DHT22;33771;48.180;11.400;2023-08-30T00:14:41;12.20;99.90
48007;DHT22;33771;48.180;11.400;2023-08-30T00:17:07;12.20;99.90
48007;DHT22;33771;48.180;11.400;2023-08-30T00:19:33;12.20;99.90
48007;DHT22;33771;48.180;11.400;2023-08-30T00:21:58;12.20;99.90
48007;DHT22;33771;48.180;11.400;2023-08-30T00:24:24;12.20;99.90
48007;DHT22;33771;48.180;11.400;2023-08-30T00:26:49;12.20;99.90
48007;DHT22;33771;48.180;11.400;2023-08-30T00:29:15;12.20;99.90
48007;DHT22;33771;48.180;11.400;2023-08-30T00:31:40;12.20;99.90
48007;DHT22;33771;48.180;11.400;2023-08-30T00:34:06;12.20;99.90
48007;DHT22;33771;48.180;11.400;2023-08-30T00:36:31;12.20;99.90
48007;DHT22;33771;48.180;11.400;2023-08-30T00:38:57;12.20;99.90
48007;DHT22;33771;48.180;11.400;2023-08-30T00:41:23;12.20;99.90
48007;DHT22;33771;48.180;11.400;2023-08-30T00:43:49;12.20;99.90
48007;DHT22;33771;48.180;11.400;2023-08-30T00:46:15;12.10;99.90
48007;DHT22;33771;48.180;11.400;2023-08-30T00:48:41;12.20;99.90
48007;DHT22;33771;48.180;11.400;2023-08-30T00:51:07;12.10;99.90
48007;DHT22;33771;48.180;11.400;2023-08-30T00:53:32;12.20;99.90
48007;DHT22;33771;48.180;11.400;2023-08-30T00:55:58;12.20;99.90
48007;DHT22;33771;48.180;11.400;2023-08-30T00:58:24;12.20;99.90
48007;DHT22;33771;48.180;11.400;2023-08-30T01:00:52;12.20;99.90
48007;DHT22;33771;48.180;11.400;2023-08-30T01:03:18;12.10;99.90
48007;DHT22;33771;48.180;11.400;2023-08-30T01:05:45;12.20;99.90
48007;DHT22;33771;48.180;11.400;2023-08-30T01:08:11;12.20;99.90
48007;DHT22;33771;48.180;11.400;2023-08-30T01:11:03;12.20;99.90
48007;DHT22;33771;48.180;11.400;2023-08-30T01:13:31;12.20;99.90
48007;DHT22;33771;48.180;11.400;2023-08-30T01:15:58;12.20;99.90
48007;DHT22;33771;48.180;11.400;2023-08-30T01:18:27;12.10;99.90
48007;DHT22;33771;48.180;11.400;2023-08-30T01:20:55;12.20;99.90
48007;DHT22;33771;48.180;11.400;2023-08-30T01:23:45;12.20;99.90
48007;DHT22;33771;48.180;11.400;2023-08-30T01:26:29;12.20;99.90
48007;DHT22;33771;48.180;11.400;2023-08-30T01:29:01;12.20;99.90
48007;DHT22;33771;48.180;11.400;2023-08-30T01:31:27;12.20;99.90
48007;DHT22;33771;48.180;11.400;2023-08-30T01:33:55;12.10;99.90
48007;DHT22;33771;48.180;11.400;2023-08-30T01:36:22;12.10;99.90
48007;DHT22;33771;48.180;11.400;2023-08-30T01:38:48;12.10;99.90
48007;DHT22;33771;48.180;11.400;2023-08-30T01:41:15;12.10;99.90
48007;DHT22;33771;48.180;11.400;2023-08-30T01:43:41;12.10;99.90
48007;DHT22;33771;48.180;11.400;2023-08-30T01:46:08;12.10;99.90
48007;DHT22;33771;48.180;11.400;2023-08-30T01:48:35;12.10;99.90
48007;DHT22;33771;48.180;11.400;2023-08-30T01:51:01;12.10;99.90
48007;DHT22;33771;48.180;11.400;2023-08-30T01:53:28;12.10;99.90
48007;DHT22;33771;48.180;11.400;2023-08-30T01:55:54;12.00;99.90
48007;DHT22;33771;48.180;11.400;2023-08-30T01:58:19;12.00;99.90
48007;DHT22;33771;48.180;11.400;2023-08-30T02:00:45;12.10;99.90
48007;DHT22;33771;48.180;11.400;2023-08-30T02:03:12;12.00;99.90
48007;DHT22;33771;48.180;11.400;2023-08-30T02:08:44;12.00;99.90
48007;DHT22;33771;48.180;11.400;2023-08-30T02:11:17;12.00;99.90
48007;DHT22;33771;48.180;11.400;2023-08-30T02:13:45;12.00;99.90
48007;DHT22;33771;48.180;11.400;2023-08-30T02:16:12;12.00;99.90
48007;DHT22;33771;48.180;11.400;2023-08-30T02:18:38;12.00;99.90
48007;DHT22;33771;48.180;11.400;2023-08-30T02:21:04;12.00;99.90
48007;DHT22;33771;48.180;11.400;2023-08-30T02:23:29;11.90;99.90
48007;DHT22;33771;48.180;11.400;2023-08-30T02:25:55;12.00;99.90
48007;DHT22;33771;48.180;11.400;2023-08-30T02:28:23;12.00;99.90
48007;DHT22;33771;48.180;11.400;2023-08-30T02:30:53;12.00;99.90
48007;DHT22;33771;48.180;11.400;2023-08-30T02:33:18;12.00;99.90
48007;DHT22;33771;48.180;11.400;2023-08-30T02:35:44;12.00;99.90
48007;DHT22;33771;48.180;11.400;2023-08-30T02:38:10;12.00;99.90
48007;DHT22;33771;48.180;11.400;2023-08-30T02:40:36;12.00;99.90
48007;DHT22;33771;48.180;11.400;2023-08-30T02:43:01;12.00;99.90
48007;DHT22;33771;48.180;11.400;2023-08-30T02:45:27;12.00;99.90
48007;DHT22;33771;48.180;11.400;2023-08-30T02:47:55;12.00;99.90
48007;DHT22;33771;48.180;11.400;2023-08-30T02:50:22;12.00;99.90
48007;DHT22;33771;48.180;11.400;2023-08-30T02:52:48;11.90;99.90
48007;DHT22;33771;48.180;11.400;2023-08-30T02:55:13;11.90;99.90
48007;DHT22;33771;48.180;11.400;2023-08-30T02:57:39;11.90;99.90
48007;DHT22;33771;48.180;11.400;2023-08-30T03:00:05;11.90;99.90
48007;DHT22;33771;48.180;11.400;2023-08-30T03:02:32;11.90;99.90
48007;DHT22;33771;48.180;11.400;2023-08-30T03:04:58;11.90;99.90
48007;DHT22;33771;48.180;11.400;2023-08-30T03:07:25;12.00;99.90
48007;DHT22;33771;48.180;11.400;2023-08-30T03:09:54;12.00;99.90
48007;DHT22;33771;48.180;11.400;2023-08-30T03:12:19;12.00;99.90
48007;DHT22;33771;48.180;11.400;2023-08-30T03:14:45;12.00;99.90
48007;DHT22;33771;48.180;11.400;2023-08-30T03:17:11;12.00;99.90
48007;DHT22;33771;48.180;11.400;2023-08-30T03:19:36;12.00;99.90
48007;DHT22;33771;48.180;11.400;2023-08-30T03:22:02;12.00;99.90
48007;DHT22;33771;48.180;11.400;2023-08-30T03:24:28;12.00;99.90
48007;DHT22;33771;48.180;11.400;2023-08-30T03:26:53;12.00;99.90
48007;DHT22;33771;48.180;11.400;2023-08-30T03:29:19;12.00;99.90
48007;DHT22;33771;48.180;11.400;2023-08-30T03:31:44;12.00;99.90
48007;DHT22;33771;48.180;11.400;2023-08-30T03:34:10;12.00;99.90
48007;DHT22;33771;48.180;11.400;2023-08-30T03:36:36;12.00;99.90
48007;DHT22;33771;48.180;11.400;2023-08-30T03:39:02;12.00;99.90
48007;DHT22;33771;48.180;11.400;2023-08-30T03:41:28;12.00;99.90
48007;DHT22;33771;48.180;11.400;2023-08-30T03:43:53;12.00;99.90
48007;DHT22;33771;48.180;11.400;2023-08-30T03:46:19;12.00;99.90
48007;DHT22;33771;48.180;11.400;2023-08-30T03:48:44;12.00;99.90
48007;DHT22;33771;48.180;11.400;2023-08-30T03:51:10;12.00;99.90
48007;DHT22;33771;48.180;11.400;2023-08-30T03:53:35;12.00;99.90
48007;DHT22;33771;48.180;11.400;2023-08-30T03:56:01;11.90;99.90
48007;DHT22;33771;48.180;11.400;2023-08-30T03:58:28;12.00;99.90
48007;DHT22;33771;48.180;11.400;2023-08-30T04:00:54;11.90;99.90
48007;DHT22;33771;48.180;11.400;2023-08-30T04:03:20;11.90;99.90
48007;DHT22;33771;48.180;11.400;2023-08-30T04:05:45;12.00;99.90
48007;DHT22;33771;48.180;11.400;2023-08-30T04:08:11;12.00;99.90
48007;DHT22;33771;48.180;11.400;2023-08-30T04:10:40;12.00;99.90
48007;DHT22;33771;48.180;11.400;2023-08-30T04:13:07;12.00;99.90
48007;DHT22;33771;48.180;11.400;2023-08-30T04:15:35;12.00;99.90
48007;DHT22;33771;48.180;11.400;2023-08-30T04:18:02;12.00;99.90
48007;DHT22;33771;48.180;11.400;2023-08-30T04:20:27;12.00;99.90
48007;DHT22;33771;48.180;11.400;2023-08-30T04:22:53;12.00;99.90
48007;DHT22;33771;48.180;11.400;2023-08-30T04:25:20;12.00;99.90
48007;DHT22;33771;48.180;11.400;2023-08-30T04:27:46;12.00;99.90
48007;DHT22;33771;48.180;11.400;2023-08-30T04:30:12;12.00;99.90
48007;DHT22;33771;48.180;11.400;2023-08-30T04:32:37;12.00;99.90
48007;DHT22;33771;48.180;11.400;2023-08-30T04:35:03;12.00;99.90
48007;DHT22;33771;48.180;11.400;2023-08-30T04:37:32;12.00;99.90
48007;DHT22;33771;48.180;11.400;2023-08-30T04:39:57;12.00;99.90
48007;DHT22;33771;48.180;11.400;2023-08-30T04:42:23;12.00;99.90
48007;DHT22;33771;48.180;11.400;2023-08-30T04:44:50;12.00;99.90
48007;DHT22;33771;48.180;11.400;2023-08-30T04:47:16;12.00;99.90
48007;DHT22;33771;48.180;11.400;2023-08-30T04:49:42;12.00;99.90
48007;DHT22;33771;48.180;11.400;2023-08-30T04:52:07;12.00;99.90
48007;DHT22;33771;48.180;11.400;2023-08-30T04:54:33;12.00;99.90
48007;DHT22;33771;48.180;11.400;2023-08-30T04:56:59;12.00;99.90
48007;DHT22;33771;48.180;11.400;2023-08-30T04:59:24;12.00;99.90
48007;DHT22;33771;48.180;11.400;2023-08-30T05:01:50;12.00;99.90
48007;DHT22;33771;48.180;11.400;2023-08-30T05:04:17;12.00;99.90
48007;DHT22;33771;48.180;11.400;2023-08-30T05:06:43;12.00;99.90
48007;DHT22;33771;48.180;11.400;2023-08-30T05:09:08;12.10;99.90
48007;DHT22;33771;48.180;11.400;2023-08-30T05:11:34;12.10;99.90
48007;DHT22;33771;48.180;11.400;2023-08-30T05:13:59;12.10;99.90
48007;DHT22;33771;48.180;11.400;2023-08-30T05:16:28;12.10;99.90
48007;DHT22;33771;48.180;11.400;2023-08-30T05:18:53;12.10;99.90
48007;DHT22;33771;48.180;11.400;2023-08-30T05:21:19;12.10;99.90
48007;DHT22;33771;48.180;11.400;2023-08-30T05:23:45;12.10;99.90
48007;DHT22;33771;48.180;11.400;2023-08-30T05:26:12;12.10;99.90
48007;DHT22;33771;48.180;11.400;2023-08-30T05:28:38;12.10;99.90
48007;DHT22;33771;48.180;11.400;2023-08-30T05:31:03;12.10;99.90
48007;DHT22;33771;48.180;11.400;2023-08-30T05:33:29;12.10;99.90
48007;DHT22;33771;48.180;11.400;2023-08-30T05:35:55;12.20;99.90
48007;DHT22;33771;48.180;11.400;2023-08-30T05:38:20;12.20;99.90
48007;DHT22;33771;48.180;11.400;2023-08-30T05:40:46;12.20;99.90
48007;DHT22;33771;48.180;11.400;2023-08-30T05:43:12;12.20;99.90
48007;DHT22;33771;48.180;11.400;2023-08-30T05:45:37;12.30;99.90
48007;DHT22;33771;48.180;11.400;2023-08-30T05:48:03;12.30;99.90
48007;DHT22;33771;48.180;11.400;2023-08-30T05:50:29;12.30;99.90
48007;DHT22;33771;48.180;11.400;2023-08-30T05:52:55;12.30;99.90
48007;DHT22;33771;48.180;11.400;2023-08-30T05:55:20;12.30;99.90
48007;DHT22;33771;48.180;11.400;2023-08-30T05:57:46;12.30;99.90
48007;DHT22;33771;48.180;11.400;2023-08-30T06:00:12;12.40;99.90
48007;DHT22;33771;48.180;11.400;2023-08-30T06:02:38;12.40;99.90
48007;DHT22;33771;48.180;11.400;2023-08-30T06:05:04;12.40;99.90
48007;DHT22;33771;48.180;11.400;2023-08-30T06:07:30;12.40;99.90
48007;DHT22;33771;48.180;11.400;2023-08-30T06:09:55;12.50;99.90
48007;DHT22;33771;48.180;11.400;2023-08-30T06:12:21;12.50;99.90
48007;DHT22;33771;48.180;11.400;2023-08-30T06:14:47;12.60;99.90
48007;DHT22;33771;48.180;11.400;2023-08-30T06:17:17;12.60;99.90
48007;DHT22;33771;48.180;11.400;2023-08-30T06:19:43;12.70;99.90
48007;DHT22;33771;48.180;11.400;2023-08-30T06:22:08;12.70;99.90
48007;DHT22;33771;48.180;11.400;2023-08-30T06:24:34;12.80;99.90
48007;DHT22;33771;48.180;11.400;2023-08-30T06:26:59;12.90;99.90
48007;DHT22;33771;48.180;11.400;2023-08-30T06:29:25;12.90;99.90
48007;DHT22;33771;48.180;11.400;2023-08-30T06:31:50;12.90;99.90
48007;DHT22;33771;48.180;11.400;2023-08-30T06:34:16;12.90;99.90
48007;DHT22;33771;48.180;11.400;2023-08-30T06:36:42;12.90;99.90
48007;DHT22;33771;48.180;11.400;2023-08-30T06:39:07;13.00;99.90
48007;DHT22;33771;48.180;11.400;2023-08-30T06:41:33;13.00;99.90
48007;DHT22;33771;48.180;11.400;2023-08-30T06:43:58;13.00;99.90
48007;DHT22;33771;48.180;11.400;2023-08-30T06:46:24;13.00;99.90
48007;DHT22;33771;48.180;11.400;2023-08-30T06:48:50;13.10;99.90
48007;DHT22;33771;48.180;11.400;2023-08-30T06:51:15;13.10;99.90
48007;DHT22;33771;48.180;11.400;2023-08-30T06:53:41;13.10;99.90
48007;DHT22;33771;48.180;11.400;2023-08-30T06:56:06;13.10;99.90
48007;DHT22;33771;48.180;11.400;2023-08-30T06:58:32;13.20;99.90
48007;DHT22;33771;48.180;11.400;2023-08-30T07:00:57;13.20;99.90
48007;DHT22;33771;48.180;11.400;2023-08-30T07:03:24;13.20;99.90
48007;DHT22;33771;48.180;11.400;2023-08-30T07:05:51;13.20;99.90
48007;DHT22;33771;48.180;11.400;2023-08-30T07:08:17;13.20;99.90
48007;DHT22;33771;48.180;11.400;2023-08-30T07:10:42;13.30;99.90
48007;DHT22;33771;48.180;11.400;2023-08-30T07:13:08;13.30;99.90
48007;DHT22;33771;48.180;11.400;2023-08-30T07:15:39;13.30;99.90
48007;DHT22;33771;48.180;11.400;2023-08-30T07:18:05;13.30;99.90
48007;DHT22;33771;48.180;11.400;2023-08-30T07:20:31;13.30;99.90
48007;DHT22;33771;48.180;11.400;2023-08-30T07:22:57;13.40;99.90
48007;DHT22;33771;48.180;11.400;2023-08-30T07:25:22;13.40;99.90
48007;DHT22;33771;48.180;11.400;2023-08-30T07:27:48;13.40;99.90
48007;DHT22;33771;48.180;11.400;2023-08-30T07:30:14;13.40;99.90
48007;DHT22;33771;48.180;11.400;2023-08-30T07:32:40;13.40;99.90
48007;DHT22;33771;48.180;11.400;2023-08-30T07:35:06;13.50;99.90
48007;DHT22;33771;48.180;11.400;2023-08-30T07:37:32;13.50;99.90
48007;DHT22;33771;48.180;11.400;2023-08-30T07:39:57;13.50;99.90
48007;DHT22;33771;48.180;11.400;2023-08-30T07:42:23;13.50;99.90
48007;DHT22;33771;48.180;11.400;2023-08-30T07:44:49;13.60;99.90
48007;DHT22;33771;48.180;11.400;2023-08-30T07:47:14;13.60;99.90
48007;DHT22;33771;48.180;11.400;2023-08-30T07:49:41;13.60;99.90
48007;DHT22;33771;48.180;11.400;2023-08-30T07:52:06;13.70;99.90
48007;DHT22;33771;48.180;11.400;2023-08-30T07:54:36;13.80;99.90
48007;DHT22;33771;48.180;11.400;2023-08-30T07:57:02;13.80;99.90
48007;DHT22;33771;48.180;11.400;2023-08-30T07:59:28;13.90;99.90
48007;DHT22;33771;48.180;11.400;2023-08-30T08:01:53;14.00;99.90
48007;DHT22;33771;48.180;11.400;2023-08-30T08:04:19;14.00;99.90
48007;DHT22;33771;48.180;11.400;2023-08-30T08:06:44;14.10;99.90
48007;DHT22;33771;48.180;11.400;2023-08-30T08:09:10;14.20;99.90
48007;DHT22;33771;48.180;11.400;2023-08-30T08:11:35;14.40;99.90
48007;DHT22;33771;48.180;11.400;2023-08-30T08:14:01;14.50;99.90
48007;DHT22;33771;48.180;11.400;2023-08-30T08:16:27;14.50;99.90
48007;DHT22;33771;48.180;11.400;2023-08-30T08:18:52;14.70;99.90
48007;DHT22;33771;48.180;11.400;2023-08-30T08:21:18;14.80;99.90
48007;DHT22;33771;48.180;11.400;2023-08-30T08:23:44;14.90;99.90
48007;DHT22;33771;48.180;11.400;2023-08-30T08:26:09;15.00;99.90
48007;DHT22;33771;48.180;11.400;2023-08-30T08:28:35;15.20;99.90
48007;DHT22;33771;48.180;11.400;2023-08-30T08:31:00;15.30;99.90
48007;DHT22;33771;48.180;11.400;2023-08-30T08:33:26;15.50;99.90
48007;DHT22;33771;48.180;11.400;2023-08-30T08:35:51;15.60;99.90
48007;DHT22;33771;48.180;11.400;2023-08-30T08:38:17;15.80;99.90
48007;DHT22;33771;48.180;11.400;2023-08-30T08:40:42;16.00;99.90
48007;DHT22;33771;48.180;11.400;2023-08-30T08:43:11;16.10;99.90
48007;DHT22;33771;48.180;11.400;2023-08-30T08:45:37;16.30;99.90
48007;DHT22;33771;48.180;11.400;2023-08-30T08:48:06;16.40;99.90
48007;DHT22;33771;48.180;11.400;2023-08-30T08:50:32;16.60;99.90
48007;DHT22;33771;48.180;11.400;2023-08-30T08:52:59;16.60;99.90
48007;DHT22;33771;48.180;11.400;2023-08-30T08:55:26;16.60;99.90
48007;DHT22;33771;48.180;11.400;2023-08-30T08:57:56;16.60;99.90
48007;DHT22;33771;48.180;11.400;2023-08-30T09:00:22;16.60;99.90
48007;DHT22;33771;48.180;11.400;2023-08-30T09:02:48;16.70;99.90
48007;DHT22;33771;48.180;11.400;2023-08-30T09:05:18;16.70;99.90
48007;DHT22;33771;48.180;11.400;2023-08-30T09:07:44;16.70;99.90
48007;DHT22;33771;48.180;11.400;2023-08-30T09:10:10;16.80;99.90
48007;DHT22;33771;48.180;11.400;2023-08-30T09:12:36;16.70;99.90
48007;DHT22;33771;48.180;11.400;2023-08-30T09:15:01;16.60;99.90
48007;DHT22;33771;48.180;11.400;2023-08-30T09:17:37;16.50;99.90
48007;DHT22;33771;48.180;11.400;2023-08-30T09:20:10;16.50;99.90
48007;DHT22;33771;48.180;11.400;2023-08-30T09:22:40;16.30;99.90
48007;DHT22;33771;48.180;11.400;2023-08-30T09:25:11;16.20;99.90
48007;DHT22;33771;48.180;11.400;2023-08-30T09:27:38;16.20;99.90
48007;DHT22;33771;48.180;11.400;2023-08-30T09:30:06;16.20;99.90
48007;DHT22;33771;48.180;11.400;2023-08-30T09:32:41;16.40;99.90
48007;DHT22;33771;48.180;11.400;2023-08-30T09:35:08;16.90;99.90
48007;DHT22;33771;48.180;11.400;2023-08-30T09:37:33;17.10;99.90
48007;DHT22;33771;48.180;11.400;2023-08-30T09:39:59;17.30;99.90
48007;DHT22;33771;48.180;11.400;2023-08-30T09:42:26;17.60;99.90
48007;DHT22;33771;48.180;11.400;2023-08-30T09:44:51;17.80;99.90
48007;DHT22;33771;48.180;11.400;2023-08-30T09:47:17;18.00;99.90
48007;DHT22;33771;48.180;11.400;2023-08-30T09:49:45;18.20;99.90
48007;DHT22;33771;48.180;11.400;2023-08-30T09:52:15;18.30;99.90
48007;DHT22;33771;48.180;11.400;2023-08-30T09:54:42;18.30;99.90
48007;DHT22;33771;48.180;11.400;2023-08-30T09:57:09;18.50;99.90
48007;DHT22;33771;48.180;11.400;2023-08-30T09:59:36;18.70;99.90
48007;DHT22;33771;48.180;11.400;2023-08-30T10:02:03;18.70;99.90
48007;DHT22;33771;48.180;11.400;2023-08-30T10:04:31;19.00;99.90
48007;DHT22;33771;48.180;11.400;2023-08-30T10:06:58;19.30;99.90
48007;DHT22;33771;48.180;11.400;2023-08-30T10:09:24;19.20;99.90
48007;DHT22;33771;48.180;11.400;2023-08-30T10:11:50;19.20;99.90
48007;DHT22;33771;48.180;11.400;2023-08-30T10:14:17;19.30;99.90
48007;DHT22;33771;48.180;11.400;2023-08-30T10:16:44;19.50;99.90
48007;DHT22;33771;48.180;11.400;2023-08-30T10:19:30;19.60;99.90
48007;DHT22;33771;48.180;11.400;2023-08-30T10:24:25;20.40;99.90
48007;DHT22;33771;48.180;11.400;2023-08-30T10:26:51;20.80;99.90
48007;DHT22;33771;48.180;11.400;2023-08-30T10:29:19;20.70;99.90
48007;DHT22;33771;48.180;11.400;2023-08-30T10:31:45;20.80;99.90
48007;DHT22;33771;48.180;11.400;2023-08-30T10:34:15;20.70;99.90
48007;DHT22;33771;48.180;11.400;2023-08-30T10:36:42;20.30;99.90
48007;DHT22;33771;48.180;11.400;2023-08-30T10:39:12;20.20;99.90
48007;DHT22;33771;48.180;11.400;2023-08-30T10:41:53;19.80;99.90
48007;DHT22;33771;48.180;11.400;2023-08-30T10:44:19;19.50;99.90
48007;DHT22;33771;48.180;11.400;2023-08-30T10:46:55;19.40;99.90
48007;DHT22;33771;48.180;11.400;2023-08-30T10:49:21;19.10;99.90
48007;DHT22;33771;48.180;11.400;2023-08-30T10:51:57;19.00;99.90
48007;DHT22;33771;48.180;11.400;2023-08-30T10:54:24;18.90;99.90
48007;DHT22;33771;48.180;11.400;2023-08-30T10:56:55;18.90;99.90
48007;DHT22;33771;48.180;11.400;2023-08-30T10:59:28;18.90;99.90
48007;DHT22;33771;48.180;11.400;2023-08-30T11:01:55;18.80;99.90
48007;DHT22;33771;48.180;11.400;2023-08-30T11:04:23;18.80;99.90
48007;DHT22;33771;48.180;11.400;2023-08-30T11:06:50;18.70;99.90
48007;DHT22;33771;48.180;11.400;2023-08-30T11:09:17;18.50;99.90
48007;DHT22;33771;48.180;11.400;2023-08-30T11:11:44;18.30;99.90
48007;DHT22;33771;48.180;11.400;2023-08-30T11:14:11;18.10;99.90
48007;DHT22;33771;48.180;11.400;2023-08-30T11:16:37;18.00;99.90
48007;DHT22;33771;48.180;11.400;2023-08-30T11:19:04;17.90;99.90
48007;DHT22;33771;48.180;11.400;2023-08-30T11:21:35;17.90;99.90
48007;DHT22;33771;48.180;11.400;2023-08-30T11:24:01;17.80;99.90
48007;DHT22;33771;48.180;11.400;2023-08-30T11:26:28;17.90;99.90
48007;DHT22;33771;48.180;11.400;2023-08-30T11:28:54;18.10;99.90
48007;DHT22;33771;48.180;11.400;2023-08-30T11:31:21;18.40;99.90
48007;DHT22;33771;48.180;11.400;2023-08-30T11:33:52;18.70;99.90
48007;DHT22;33771;48.180;11.400;2023-08-30T11:36:20;19.00;99.90
48007;DHT22;33771;48.180;11.400;2023-08-30T11:38:46;19.30;99.90
48007;DHT22;33771;48.180;11.400;2023-08-30T11:41:12;19.90;99.90
48007;DHT22;33771;48.180;11.400;2023-08-30T11:43:38;20.30;99.90
48007;DHT22;33771;48.180;11.400;2023-08-30T11:46:04;20.80;99.90
48007;DHT22;33771;48.180;11.400;2023-08-30T11:48:29;21.20;99.90
48007;DHT22;33771;48.180;11.400;2023-08-30T11:50:55;21.40;99.90
48007;DHT22;33771;48.180;11.400;2023-08-30T11:53:21;21.40;99.90
48007;DHT22;33771;48.180;11.400;2023-08-30T11:55:46;21.10;99.90
48007;DHT22;33771;48.180;11.400;2023-08-30T11:58:12;20.70;99.90
48007;DHT22;33771;48.180;11.400;2023-08-30T12:00:38;20.30;99.90
48007;DHT22;33771;48.180;11.400;2023-08-30T12:03:05;20.10;99.90
48007;DHT22;33771;48.180;11.400;2023-08-30T12:05:31;19.80;99.90
48007;DHT22;33771;48.180;11.400;2023-08-30T12:08:00;19.60;99.90
48007;DHT22;33771;48.180;11.400;2023-08-30T12:10:28;19.70;99.90
48007;DHT22;33771;48.180;11.400;2023-08-30T12:12:53;19.90;99.90
48007;DHT22;33771;48.180;11.400;2023-08-30T12:15:19;20.40;99.90
48007;DHT22;33771;48.180;11.400;2023-08-30T12:17:45;20.80;99.90
48007;DHT22;33771;48.180;11.400;2023-08-30T12:20:19;21.30;99.90
48007;DHT22;33771;48.180;11.400;2023-08-30T12:22:49;21.80;99.90
48007;DHT22;33771;48.180;11.400;2023-08-30T12:25:22;22.30;99.90
48007;DHT22;33771;48.180;11.400;2023-08-30T12:27:52;22.40;99.90
48007;DHT22;33771;48.180;11.400;2023-08-30T12:30:18;22.10;99.90
48007;DHT22;33771;48.180;11.400;2023-08-30T12:32:45;22.10;99.90
48007;DHT22;33771;48.180;11.400;2023-08-30T12:35:11;21.60;99.90
48007;DHT22;33771;48.180;11.400;2023-08-30T12:37:36;21.30;99.90
48007;DHT22;33771;48.180;11.400;2023-08-30T12:40:02;21.10;99.90
48007;DHT22;33771;48.180;11.400;2023-08-30T12:42:28;20.90;99.90
48007;DHT22;33771;48.180;11.400;2023-08-30T12:44:54;20.60;99.90
48007;DHT22;33771;48.180;11.400;2023-08-30T12:47:19;20.30;99.90
48007;DHT22;33771;48.180;11.400;2023-08-30T12:49:46;20.00;99.90
48007;DHT22;33771;48.180;11.400;2023-08-30T12:52:12;19.80;99.90
48007;DHT22;33771;48.180;11.400;2023-08-30T12:54:37;19.50;99.90
48007;DHT22;33771;48.180;11.400;2023-08-30T12:57:03;19.20;99.90
48007;DHT22;33771;48.180;11.400;2023-08-30T12:59:29;18.90;99.90
48007;DHT22;33771;48.180;11.400;2023-08-30T13:01:54;18.70;99.90
48007;DHT22;33771;48.180;11.400;2023-08-30T13:04:20;18.50;99.90
48007;DHT22;33771;48.180;11.400;2023-08-30T13:06:46;18.30;99.90
48007;DHT22;33771;48.180;11.400;2023-08-30T13:09:11;18.10;99.90
48007;DHT22;33771;48.180;11.400;2023-08-30T13:11:37;18.00;99.90
48007;DHT22;33771;48.180;11.400;2023-08-30T13:14:02;17.80;99.90
48007;DHT22;33771;48.180;11.400;2023-08-30T13:16:28;17.70;99.90
48007;DHT22;33771;48.180;11.400;2023-08-30T13:18:53;17.70;99.90
48007;DHT22;33771;48.180;11.400;2023-08-30T13:21:19;17.60;99.90
48007;DHT22;33771;48.180;11.400;2023-08-30T13:23:44;17.50;99.90
48007;DHT22;33771;48.180;11.400;2023-08-30T13:26:10;17.50;99.90
48007;DHT22;33771;48.180;11.400;2023-08-30T13:28:36;17.40;99.90
48007;DHT22;33771;48.180;11.400;2023-08-30T13:31:01;17.40;99.90
48007;DHT22;33771;48.180;11.400;2023-08-30T13:33:27;17.40;99.90
48007;DHT22;33771;48.180;11.400;2023-08-30T13:35:52;17.30;99.90
48007;DHT22;33771;48.180;11.400;2023-08-30T13:38:19;17.30;99.90
48007;DHT22;33771;48.180;11.400;2023-08-30T13:40:45;17.30;99.90
48007;DHT22;33771;48.180;11.400;2023-08-30T13:43:11;17.30;99.90
48007;DHT22;33771;48.180;11.400;2023-08-30T13:45:36;17.20;99.90
48007;DHT22;33771;48.180;11.400;2023-08-30T13:48:02;17.20;99.90
48007;DHT22;33771;48.180;11.400;2023-08-30T13:50:27;17.20;99.90
48007;DHT22;33771;48.180;11.400;2023-08-30T13:52:58;17.20;99.90
48007;DHT22;33771;48.180;11.400;2023-08-30T13:55:25;17.20;99.90
48007;DHT22;33771;48.180;11.400;2023-08-30T13:57:50;17.20;99.90
48007;DHT22;33771;48.180;11.400;2023-08-30T14:00:16;17.30;99.90
48007;DHT22;33771;48.180;11.400;2023-08-30T14:02:42;17.40;99.90
48007;DHT22;33771;48.180;11.400;2023-08-30T14:05:08;17.50;99.90
48007;DHT22;33771;48.180;11.400;2023-08-30T14:07:34;17.70;99.90
48007;DHT22;33771;48.180;11.400;2023-08-30T14:09:59;17.90;99.90
48007;DHT22;33771;48.180;11.400;2023-08-30T14:12:25;18.00;99.90
48007;DHT22;33771;48.180;11.400;2023-08-30T14:14:51;18.20;99.90
48007;DHT22;33771;48.180;11.400;2023-08-30T14:17:18;18.30;99.90
48007;DHT22;33771;48.180;11.400;2023-08-30T14:19:43;18.50;99.90
48007;DHT22;33771;48.180;11.400;2023-08-30T14:22:09;18.50;99.90
48007;DHT22;33771;48.180;11.400;2023-08-30T14:24:34;18.60;99.90
48007;DHT22;33771;48.180;11.400;2023-08-30T14:27:00;18.70;99.90
48007;DHT22;33771;48.180;11.400;2023-08-30T14:29:26;18.70;99.90
48007;DHT22;33771;48.180;11.400;2023-08-30T14:31:51;18.70;99.90
48007;DHT22;33771;48.180;11.400;2023-08-30T14:34:17;18.70;99.90
48007;DHT22;33771;48.180;11.400;2023-08-30T14:36:43;18.60;99.90
48007;DHT22;33771;48.180;11.400;2023-08-30T14:39:09;18.60;99.90
48007;DHT22;33771;48.180;11.400;2023-08-30T14:41:35;18.60;99.90
48007;DHT22;33771;48.180;11.400;2023-08-30T14:44:02;18.70;99.90
48007;DHT22;33771;48.180;11.400;2023-08-30T14:46:31;18.80;99.90
48007;DHT22;33771;48.180;11.400;2023-08-30T14:48:57;18.80;99.90
48007;DHT22;33771;48.180;11.400;2023-08-30T14:51:22;18.90;99.90
48007;DHT22;33771;48.180;11.400;2023-08-30T14:53:48;18.90;99.90
48007;DHT22;33771;48.180;11.400;2023-08-30T14:56:13;18.90;99.90
48007;DHT22;33771;48.180;11.400;2023-08-30T14:58:39;18.90;99.90
48007;DHT22;33771;48.180;11.400;2023-08-30T15:01:04;19.00;99.90
48007;DHT22;33771;48.180;11.400;2023-08-30T15:03:30;19.00;99.90
48007;DHT22;33771;48.180;11.400;2023-08-30T15:05:56;19.00;99.90
48007;DHT22;33771;48.180;11.400;2023-08-30T15:08:23;19.00;99.90
48007;DHT22;33771;48.180;11.400;2023-08-30T15:10:49;19.00;99.90
48007;DHT22;33771;48.180;11.400;2023-08-30T15:13:16;19.00;99.90
48007;DHT22;33771;48.180;11.400;2023-08-30T15:15:42;19.00;99.90